Time;durP1;ratioP1;P1;durP2;ratioP2;P2;SDS_P1;SDS_P2;PMS_P1;PMS_P2;Temp;Humidity;BMP_temperature;BMP_pressure;BME280_temperature;BME280_humidity;BME280_pressure;Samples;Min_cycle;Max_cycle;Signal;HPM_P1;HPM_P2
2022/11/22 00:24:08;;;;;;;;;;;;;;;16.72;54.22;95089.81;5155629;27;19917;-31
2022/11/22 00:39:10;;;;;;;;;;;;;;;17.31;52.25;95015.47;5151072;27;19929;-30
2022/11/22 00:54:08;;;;;;;;;;;;;;;17.60;51.52;94953.81;5155337;27;19956;-30
2022/11/22 01:09:10;;;;;;;;;;;;;;;17.48;51.57;94898.31;5134217;28;19914;-30
2022/11/22 01:24:10;;;;;;;;;;;;;;;16.93;53.35;94866.50;5134301;28;20010;-30
2022/11/22 01:39:11;;;;;;;;;;;;;;;17.29;52.10;94815.25;5134190;28;19922;-30
2022/11/22 01:54:12;;;;;;;;;;;;;;;17.44;52.29;94749.84;5149336;27;19918;-30
2022/11/22 02:09:12;;;;;;;;;;;;;;;17.63;51.86;94677.91;5158152;27;19928;-29
2022/11/22 02:24:41;;;;;;;;;;;;;;;17.75;51.89;94611.50;5136983;27;19942;-30
2022/11/22 02:39:20;;;;;;;;;;;;;;;17.89;51.63;94574.69;5157104;27;20384;-30
2022/11/22 02:41:46;;;;;;;;;;;;;;;17.89;51.47;94557.50;5139639;27;19910;-30
2022/11/22 02:56:22;;;;;;;;;;;;;;;17.60;52.24;94480.31;5155561;27;20229;-30
2022/11/22 03:10:59;;;;;;;;;;;;;;;17.77;52.18;94490.34;5156839;27;19930;-30
2022/11/22 03:13:25;;;;;;;;;;;;;;;17.68;52.35;94482.50;5138335;27;19907;-30
2022/11/22 03:24:58;;;;;;;;;;;;;;;17.26;54.06;94465.59;5156114;27;19921;-30
2022/11/22 03:39:34;;;;;;;;;;;;;;;17.50;53.35;94429.16;5156493;27;19918;-30
2022/11/22 03:42:00;;;;;;;;;;;;;;;17.45;53.42;94430.69;5156169;27;19907;-29
2022/11/22 04:09:21;;;;;;;;;;;;;;;17.42;54.44;94411.84;5155629;27;19998;-29
2022/11/22 04:11:47;;;;;;;;;;;;;;;17.42;54.62;94414.56;5155957;27;19911;-31
2022/11/22 04:54:22;;;;;;;;;;;;;;;17.47;56.46;94288.44;5155414;27;19951;-30
2022/11/22 05:09:23;;;;;;;;;;;;;;;17.57;56.61;94259.34;5155291;27;19922;-30
2022/11/22 05:24:24;;;;;;;;;;;;;;;17.52;56.80;94216.34;5158970;27;19960;-30
2022/11/22 05:39:24;;;;;;;;;;;;;;;17.67;55.99;94174.03;5158567;27;19917;-29
2022/11/22 05:54:25;;;;;;;;;;;;;;;17.71;56.42;94136.78;5158245;27;19933;-30
2022/11/22 06:09:26;;;;;;;;;;;;;;;17.70;56.91;94137.31;5158194;27;19914;-29
2022/11/22 06:24:27;;;;;;;;;;;;;;;16.05;63.30;94140.94;5122604;27;19975;-30
2022/11/22 06:39:27;;;;;;;;;;;;;;;17.40;57.57;94088.31;5094398;28;20342;-30
2022/11/22 06:41:52;;;;;;;;;;;;;;;17.39;57.53;94076.59;5116389;28;19960;-31
2022/11/22 06:44:18;;;;;;;;;;;;;;;17.50;57.10;94059.94;5114046;28;19908;-30
2022/11/22 06:55:51;;;;;;;;;;;;;;;17.33;57.36;94086.91;5115806;28;19915;-29
2022/11/22 07:10:28;;;;;;;;;;;;;;;17.36;56.61;94058.47;5115700;28;20288;-29
2022/11/22 07:25:05;;;;;;;;;;;;;;;17.46;56.27;94064.25;5125386;27;19922;-30
2022/11/22 07:27:30;;;;;;;;;;;;;;;17.51;56.06;94063.41;5156393;27;20362;-30
2022/11/22 07:29:55;;;;;;;;;;;;;;;17.38;56.47;94045.00;5156907;27;19907;-30
2022/11/22 07:41:29;;;;;;;;;;;;;;;17.32;57.00;94052.56;5135470;27;19914;-30
2022/11/22 07:43:54;;;;;;;;;;;;;;;16.09;61.34;94087.44;5134857;27;19911;-31
2022/11/22 07:55:30;;;;;;;;;;;;;;;17.17;57.64;94046.91;5135120;27;19960;-30
2022/11/22 08:10:07;;;;;;;;;;;;;;;17.46;56.11;94070.47;5135214;27;19918;-28
2022/11/22 08:24:44;;;;;;;;;;;;;;;17.55;55.65;94080.28;5135011;27;19914;-29
2022/11/22 08:39:36;;;;;;;;;;;;;;;17.51;55.93;94064.16;5134732;27;19969;-29
2022/11/22 08:42:01;;;;;;;;;;;;;;;17.63;55.47;94064.69;5134611;27;19907;-29
2022/11/22 08:44:29;;;;;;;;;;;;;;;17.66;55.27;94054.69;5134991;28;19933;-29
2022/11/22 08:46:55;;;;;;;;;;;;;;;17.35;56.17;94057.00;5153945;27;19915;-29
2022/11/22 09:42:37;;;;;;;;;;;;;;;17.47;55.01;94145.94;5144755;27;19921;-29
2022/11/22 09:57:43;;;;;;;;;;;;;;;17.37;55.02;94155.84;5134945;27;19918;-29
2022/11/22 10:12:40;;;;;;;;;;;;;;;17.42;54.82;94170.72;5132762;27;19918;-28
2022/11/22 10:27:38;;;;;;;;;;;;;;;17.19;55.26;94171.06;5134831;27;20373;-29
2022/11/22 10:42:39;;;;;;;;;;;;;;;17.35;54.61;94199.47;5115490;28;19966;-28
2022/11/22 10:45:20;;;;;;;;;;;;;;;17.28;54.90;94211.03;5100544;28;19914;-29
2022/11/22 11:00:02;;;;;;;;;;;;;;;17.40;54.50;94186.94;5095315;28;19935;-28
2022/11/22 11:14:43;;;;;;;;;;;;;;;17.62;53.62;94189.28;5094893;28;20276;-29
2022/11/22 11:29:22;;;;;;;;;;;;;;;17.46;53.96;94215.69;5121987;27;19960;-28
2022/11/22 11:44:02;;;;;;;;;;;;;;;17.57;53.47;94228.47;5132998;27;19956;-29
2022/11/22 11:58:39;;;;;;;;;;;;;;;17.52;53.43;94265.69;5141644;27;20012;-30
2022/11/22 12:01:12;;;;;;;;;;;;;;;17.46;53.52;94262.28;5132695;27;20382;-29
2022/11/22 12:12:50;;;;;;;;;;;;;;;17.43;53.52;94285.25;5132666;27;19918;-28
2022/11/22 12:27:46;;;;;;;;;;;;;;;17.36;53.40;94277.66;5132314;27;20445;-29
2022/11/22 12:42:45;;;;;;;;;;;;;;;17.32;53.17;94271.00;5134445;27;19914;-28
2022/11/22 12:57:46;;;;;;;;;;;;;;;17.42;52.55;94283.78;5134894;27;19914;-31
2022/11/22 13:12:47;;;;;;;;;;;;;;;16.85;53.26;94279.66;5155222;27;20427;-29
2022/11/22 13:27:49;;;;;;;;;;;;;;;17.29;52.67;94283.75;5154930;27;20043;-27
2022/11/22 13:42:49;;;;;;;;;;;;;;;17.27;52.51;94304.69;5158548;27;20350;-30
2022/11/22 13:57:50;;;;;;;;;;;;;;;17.41;52.03;94298.00;5158692;27;19959;-30
2022/11/22 14:12:51;;;;;;;;;;;;;;;17.51;51.89;94310.06;5134526;27;19914;-29
2022/11/22 14:27:52;;;;;;;;;;;;;;;17.40;52.12;94310.97;5154796;27;20231;-29
2022/11/22 14:42:54;;;;;;;;;;;;;;;17.52;51.80;94330.72;5091501;28;20341;-31
2022/11/22 14:57:52;;;;;;;;;;;;;;;17.39;52.10;94325.94;5112885;28;20275;-28
2022/11/22 15:12:54;;;;;;;;;;;;;;;17.50;51.97;94364.13;5112512;28;19918;-30
2022/11/22 15:27:56;;;;;;;;;;;;;;;17.36;51.81;94381.75;5112895;28;19914;-28
2022/11/22 15:42:56;;;;;;;;;;;;;;;17.01;52.10;94401.91;5110610;28;20006;-29
2022/11/22 15:57:57;;;;;;;;;;;;;;;17.24;50.86;94448.94;5112245;28;19972;-28
2022/11/22 16:13:05;;;;;;;;;;;;;;;17.03;50.95;94497.25;5113681;28;19918;-28
2022/11/22 16:28:26;;;;;;;;;;;;;;;17.18;50.04;94538.66;5115080;27;19981;-28
2022/11/22 16:43:02;;;;;;;;;;;;;;;17.18;49.84;94552.34;5146145;27;19914;-29
2022/11/22 16:45:29;;;;;;;;;;;;;;;17.23;49.70;94546.06;5155478;27;19907;-28
2022/11/22 17:00:05;;;;;;;;;;;;;;;17.23;49.51;94581.66;5155392;27;19970;-29
2022/11/22 17:14:43;;;;;;;;;;;;;;;17.26;49.52;94588.88;5134447;27;19933;-29
2022/11/22 17:44:33;;;;;;;;;;;;;;;16.89;49.69;94666.16;5138044;27;20307;-28
2022/11/22 17:59:09;;;;;;;;;;;;;;;17.03;49.08;94686.19;5137384;27;20316;-31
2022/11/22 18:13:47;;;;;;;;;;;;;;;17.38;53.39;94671.69;5137367;27;19952;-30
2022/11/22 18:28:23;;;;;;;;;;;;;;;17.52;54.46;94670.56;5134114;27;19958;-30
2022/11/22 18:43:06;;;;;;;;;;;;;;;17.78;53.65;94731.13;5136609;27;19918;-31
2022/11/22 18:58:08;;;;;;;;;;;;;;;17.98;53.06;94735.38;5134386;27;20394;-30
2022/11/22 19:00:33;;;;;;;;;;;;;;;18.02;52.19;94746.06;5134030;27;19912;-30
2022/11/22 19:15:10;;;;;;;;;;;;;;;18.02;52.52;94746.81;5153760;27;19940;-30
2022/11/22 19:45:28;;;;;;;;;;;;;;;18.14;51.18;94813.28;5154430;27;20359;-35
2022/11/22 20:00:05;;;;;;;;;;;;;;;18.19;50.93;94835.16;5153601;27;19922;-35
2022/11/22 20:14:43;;;;;;;;;;;;;;;18.24;50.86;94881.03;5153372;27;20047;-35
2022/11/22 20:29:21;;;;;;;;;;;;;;;18.20;50.48;94915.47;5147587;27;19936;-37
2022/11/22 20:43:58;;;;;;;;;;;;;;;18.15;50.38;94928.00;5152816;27;19937;-39
2022/11/22 20:58:41;;;;;;;;;;;;;;;18.24;50.07;94937.91;5152212;27;20303;-35
2022/11/22 21:01:08;;;;;;;;;;;;;;;18.20;50.25;94932.69;5152951;27;19942;-37
2022/11/22 21:15:45;;;;;;;;;;;;;;;18.18;50.11;94917.97;5152387;27;19922;-36
2022/11/22 21:30:22;;;;;;;;;;;;;;;18.16;50.00;94942.47;5151511;27;19925;-39
2022/11/22 21:44:59;;;;;;;;;;;;;;;18.07;49.56;94973.69;5152341;27;19998;-36
2022/11/22 21:59:36;;;;;;;;;;;;;;;18.07;49.71;95008.63;5151726;27;19976;-34
2022/11/22 22:14:13;;;;;;;;;;;;;;;18.06;49.60;95031.81;5140859;27;19936;-36
2022/11/22 22:16:39;;;;;;;;;;;;;;;18.00;49.81;95034.59;5134932;27;20666;-38
2022/11/22 22:19:08;;;;;;;;;;;;;;;17.95;49.98;95049.84;5116752;27;20026;-35
2022/11/22 23:14:08;;;;;;;;;;;;;;;17.94;49.18;95118.91;5153513;27;19968;-35
2022/11/22 23:29:10;;;;;;;;;;;;;;;17.88;49.17;95113.47;5132755;27;19987;-35
2022/11/22 23:43:51;;;;;;;;;;;;;;;17.94;48.80;95129.88;5132878;27;19951;-35
2022/11/22 23:58:50;;;;;;;;;;;;;;;17.81;48.71;95138.66;5132877;27;19958;-35
